createdAt,value
2019-05-01T00:01:33.260Z,42.15
2019-05-01T00:04:19.002Z,41.00
2019-05-01T00:06:48.059Z,28.30
2019-05-01T00:09:15.310Z,31.42
2019-05-01T00:11:42.592Z,26.65
2019-05-01T00:14:09.800Z,28.65
2019-05-01T00:16:38.542Z,26.62
2019-05-01T00:19:05.820Z,31.50
2019-05-01T00:21:33.411Z,33.70
2019-05-01T00:24:00.701Z,22.48
2019-05-01T00:26:27.995Z,28.30
2019-05-01T00:28:55.241Z,22.93
2019-05-01T00:31:22.478Z,23.05
2019-05-01T00:33:49.760Z,29.82
2019-05-01T00:36:18.279Z,26.55
2019-05-01T00:38:45.542Z,23.90
2019-05-01T00:41:12.796Z,23.27
2019-05-01T00:43:40.022Z,23.67
2019-05-01T00:46:07.265Z,22.22
2019-05-01T00:48:34.566Z,28.87
2019-05-01T00:51:01.797Z,24.40
2019-05-01T00:53:29.109Z,28.67
2019-05-01T00:55:58.571Z,20.70
2019-05-01T00:58:33.455Z,25.12
2019-05-01T01:01:14.567Z,26.62
2019-05-01T01:03:41.767Z,27.93
2019-05-01T01:06:09.314Z,20.05
2019-05-01T01:08:36.593Z,24.18
2019-05-01T01:11:03.848Z,21.10
2019-05-01T01:13:31.086Z,23.20
2019-05-01T01:15:58.906Z,23.98
2019-05-01T01:18:26.174Z,21.45
2019-05-01T01:20:53.365Z,27.27
2019-05-01T01:23:20.680Z,25.80
2019-05-01T01:25:47.916Z,19.60
2019-05-01T01:28:15.221Z,23.55
2019-05-01T01:30:49.913Z,21.97
2019-05-01T01:33:11.514Z,24.70
2019-05-01T01:35:38.769Z,17.70
2019-05-01T01:38:06.049Z,25.52
2019-05-01T01:40:34.015Z,21.68
2019-05-01T01:43:20.473Z,20.00
2019-05-01T01:45:56.511Z,19.65
2019-05-01T01:48:24.394Z,21.33
2019-05-01T01:50:52.016Z,26.37
2019-05-01T01:53:19.265Z,17.98
2019-05-01T01:55:46.747Z,22.25
2019-05-01T01:58:15.413Z,18.85
2019-05-01T02:00:47.344Z,25.45
2019-05-01T02:03:14.581Z,24.57
2019-05-01T02:05:43.604Z,20.60
2019-05-01T02:08:10.873Z,21.90
2019-05-01T02:10:43.096Z,21.07
2019-05-01T02:13:07.152Z,17.90
2019-05-01T02:15:34.454Z,21.05
2019-05-01T02:18:02.683Z,18.50
2019-05-01T02:20:29.910Z,22.90
2019-05-01T02:22:57.191Z,23.62
2019-05-01T02:25:24.966Z,26.07
2019-05-01T02:27:54.029Z,27.62
2019-05-01T02:30:21.885Z,25.35
2019-05-01T02:32:49.269Z,24.82
2019-05-01T02:35:16.485Z,20.90
2019-05-01T02:37:43.790Z,23.38
2019-05-01T02:40:15.848Z,20.40
2019-05-01T02:42:43.073Z,21.00
2019-05-01T02:45:10.341Z,26.25
2019-05-01T02:47:37.540Z,22.90
2019-05-01T02:50:06.235Z,27.65
2019-05-01T02:52:33.636Z,24.07
2019-05-01T02:55:02.099Z,23.80
2019-05-01T02:57:29.431Z,24.55
2019-05-01T02:59:56.873Z,25.20
2019-05-01T03:02:24.208Z,26.73
2019-05-01T03:04:51.616Z,28.23
2019-05-01T03:07:18.857Z,24.10
2019-05-01T03:09:46.078Z,29.50
2019-05-01T03:12:14.205Z,23.85
2019-05-01T03:14:41.733Z,23.67
2019-05-01T03:17:10.781Z,22.90
2019-05-01T03:19:45.681Z,21.52
2019-05-01T03:22:17.719Z,22.30
2019-05-01T03:24:44.967Z,26.30
2019-05-01T03:27:12.228Z,20.70
2019-05-01T03:29:39.644Z,23.80
2019-05-01T03:32:18.267Z,18.92
2019-05-01T03:34:35.972Z,18.25
2019-05-01T03:37:03.739Z,21.33
2019-05-01T03:39:31.040Z,25.15
2019-05-01T03:41:58.289Z,24.63
2019-05-01T03:44:25.489Z,23.65
2019-05-01T03:46:52.811Z,21.07
2019-05-01T03:49:20.013Z,22.20
2019-05-01T03:51:47.278Z,27.85
2019-05-01T03:54:14.557Z,28.23
2019-05-01T03:56:41.794Z,41.63
2019-05-01T03:59:09.027Z,41.53
2019-05-01T04:01:41.086Z,27.87
2019-05-01T04:04:19.019Z,30.00
2019-05-01T04:06:46.312Z,23.52
2019-05-01T04:09:13.902Z,22.40
2019-05-01T04:11:41.121Z,20.75
2019-05-01T04:14:08.399Z,19.00
2019-05-01T04:16:35.614Z,22.42
2019-05-01T04:19:03.761Z,15.63
2019-05-01T04:21:32.864Z,24.20
2019-05-01T04:24:01.084Z,21.25
2019-05-01T04:26:28.340Z,20.12
2019-05-01T04:29:03.188Z,19.35
2019-05-01T04:31:35.998Z,17.37
2019-05-01T04:34:23.083Z,17.75
2019-05-01T04:37:07.127Z,23.65
2019-05-01T04:39:34.477Z,17.92
2019-05-01T04:42:02.115Z,27.35
2019-05-01T04:44:29.369Z,22.60
2019-05-01T04:46:56.629Z,19.00
2019-05-01T04:49:23.845Z,22.02
2019-05-01T04:51:51.069Z,19.52
2019-05-01T04:54:18.533Z,19.77
2019-05-01T04:56:45.805Z,19.42
2019-05-01T04:59:13.028Z,18.75
2019-05-01T05:01:52.491Z,24.45
2019-05-01T05:04:20.611Z,21.20
2019-05-01T05:06:47.839Z,30.43
2019-05-01T05:09:15.126Z,21.97
2019-05-01T05:11:47.239Z,25.23
2019-05-01T05:14:16.339Z,22.73
2019-05-01T05:16:45.388Z,23.83
2019-05-01T05:19:12.620Z,19.40
2019-05-01T05:21:39.906Z,24.35
2019-05-01T05:24:07.483Z,17.17
2019-05-01T05:26:34.735Z,15.15
2019-05-01T05:29:02.037Z,17.80
2019-05-01T05:31:30.277Z,17.10
2019-05-01T05:33:57.521Z,20.23
2019-05-01T05:36:24.805Z,22.25
2019-05-01T05:38:59.806Z,21.20
2019-05-01T05:41:27.126Z,17.10
2019-05-01T05:43:54.481Z,22.95
2019-05-01T05:46:21.724Z,17.92
2019-05-01T05:48:50.831Z,25.10
2019-05-01T05:51:22.631Z,20.92
2019-05-01T05:53:51.912Z,17.60
2019-05-01T05:56:24.148Z,24.72
2019-05-01T05:58:53.261Z,20.55
2019-05-01T06:01:34.408Z,19.57
2019-05-01T06:04:18.125Z,19.15
2019-05-01T06:06:53.085Z,19.85
2019-05-01T06:09:21.319Z,25.25
2019-05-01T06:11:56.387Z,22.85
2019-05-01T06:14:40.485Z,21.75
2019-05-01T06:17:28.610Z,20.32
2019-05-01T06:20:07.742Z,17.90
2019-05-01T06:22:40.750Z,20.25
2019-05-01T06:25:23.038Z,24.65
2019-05-01T06:27:44.847Z,32.23
2019-05-01T06:30:12.629Z,22.90
2019-05-01T06:32:40.178Z,23.57
2019-05-01T06:35:07.962Z,29.95
2019-05-01T06:37:39.820Z,23.32
2019-05-01T06:40:07.464Z,19.12
2019-05-01T06:42:34.680Z,19.77
2019-05-01T06:45:06.793Z,19.35
2019-05-01T06:47:43.140Z,20.82
2019-05-01T06:50:12.481Z,22.02
2019-05-01T06:52:41.024Z,26.95
2019-05-01T06:55:08.262Z,25.97
2019-05-01T06:57:38.496Z,24.82
2019-05-01T07:00:08.092Z,21.30
2019-05-01T07:02:36.986Z,22.50
2019-05-01T07:05:08.958Z,17.80
2019-05-01T07:07:34.691Z,15.85
2019-05-01T07:10:02.182Z,16.00
2019-05-01T07:12:30.051Z,16.60
2019-05-01T07:14:57.315Z,18.67
2019-05-01T07:17:24.670Z,16.12
2019-05-01T07:19:53.710Z,15.98
2019-05-01T07:22:20.939Z,20.57
2019-05-01T07:24:49.167Z,17.35
2019-05-01T07:27:18.828Z,19.30
2019-05-01T07:29:47.369Z,22.27
2019-05-01T07:32:15.126Z,17.95
2019-05-01T07:34:42.882Z,17.35
2019-05-01T07:37:10.111Z,20.12
2019-05-01T07:39:37.416Z,17.62
2019-05-01T07:42:22.936Z,22.20
2019-05-01T07:44:55.797Z,21.65
2019-05-01T07:47:34.030Z,19.17
2019-05-01T07:50:02.487Z,31.85
2019-05-01T07:52:29.727Z,25.17
2019-05-01T07:54:56.988Z,16.40
2019-05-01T07:57:24.492Z,18.05
2019-05-01T07:59:51.726Z,79.35
2019-05-01T08:02:19.046Z,47.38
2019-05-01T08:04:46.354Z,19.48
2019-05-01T08:10:13.925Z,19.77
2019-05-01T08:12:41.181Z,14.35
2019-05-01T08:15:08.435Z,17.55
2019-05-01T08:17:37.560Z,16.20
2019-05-01T08:20:14.915Z,28.07
2019-05-01T08:22:44.881Z,17.70
2019-05-01T08:25:12.129Z,14.10
2019-05-01T08:27:50.986Z,12.80
2019-05-01T08:30:24.204Z,15.13
2019-05-01T08:33:09.919Z,10.85
2019-05-01T08:35:37.717Z,12.73
2019-05-01T08:38:05.697Z,16.42
2019-05-01T08:40:32.969Z,19.20
2019-05-01T08:43:00.196Z,17.73
2019-05-01T08:45:42.526Z,12.98
2019-05-01T08:48:30.773Z,13.90
2019-05-01T08:50:59.055Z,13.55
2019-05-01T08:53:27.428Z,16.57
2019-05-01T08:55:54.709Z,13.40
2019-05-01T08:58:22.099Z,30.37
2019-05-01T09:00:49.350Z,36.85
2019-05-01T09:03:18.605Z,15.88
2019-05-01T09:05:45.852Z,15.70
2019-05-01T09:08:13.306Z,16.37
2019-05-01T09:10:40.535Z,17.75
2019-05-01T09:13:07.871Z,26.70
2019-05-01T09:15:35.678Z,45.88
2019-05-01T09:18:03.194Z,30.70
2019-05-01T09:20:31.848Z,20.40
2019-05-01T09:22:59.170Z,21.30
2019-05-01T09:25:37.496Z,11.48
2019-05-01T09:28:06.568Z,53.10
2019-05-01T09:30:35.649Z,16.80
2019-05-01T09:33:03.047Z,26.68
2019-05-01T09:35:30.826Z,20.32
2019-05-01T09:37:58.348Z,15.28
2019-05-01T09:40:25.798Z,15.05
2019-05-01T09:42:54.828Z,17.32
2019-05-01T09:45:22.160Z,14.05
2019-05-01T09:47:49.442Z,14.07
2019-05-01T09:50:16.696Z,12.47
2019-05-01T09:52:45.737Z,16.95
2019-05-01T09:55:17.858Z,12.23
2019-05-01T09:57:47.493Z,18.67
2019-05-01T10:00:19.120Z,11.08
2019-05-01T10:02:46.538Z,16.27
2019-05-01T10:05:13.764Z,53.13
2019-05-01T10:07:41.048Z,22.13
2019-05-01T10:10:08.504Z,15.63
2019-05-01T10:12:35.906Z,67.67
2019-05-01T10:15:05.049Z,41.45
2019-05-01T10:17:51.783Z,23.52
2019-05-01T10:20:19.601Z,28.02
2019-05-01T10:22:47.236Z,44.10
2019-05-01T10:25:14.527Z,19.12
2019-05-01T10:27:46.636Z,53.17
2019-05-01T10:30:18.564Z,66.70
2019-05-01T10:32:48.463Z,73.85
2019-05-01T10:35:24.957Z,60.43
2019-05-01T10:37:53.300Z,54.10
2019-05-01T10:40:22.316Z,16.95
2019-05-01T10:42:49.629Z,64.55
2019-05-01T10:45:16.976Z,11.38
2019-05-01T10:47:44.238Z,14.58
2019-05-01T10:50:11.497Z,18.15
2019-05-01T10:52:38.784Z,48.78
2019-05-01T10:55:06.364Z,19.52
2019-05-01T10:57:35.199Z,44.98
2019-05-01T11:00:04.708Z,13.83
2019-05-01T11:02:31.951Z,28.70
2019-05-01T11:04:59.213Z,64.53
2019-05-01T11:07:26.604Z,24.57
2019-05-01T11:09:53.826Z,13.15
2019-05-01T11:12:21.443Z,56.75
2019-05-01T11:14:48.721Z,62.10
2019-05-01T11:17:15.936Z,22.45
2019-05-01T11:19:43.194Z,53.42
2019-05-01T11:22:10.493Z,63.25
2019-05-01T11:24:37.713Z,69.50
2019-05-01T11:27:06.154Z,36.53
2019-05-01T11:29:33.475Z,60.15
2019-05-01T11:32:02.507Z,74.62
2019-05-01T11:34:40.288Z,16.45
2019-05-01T11:37:12.058Z,24.32
2019-05-01T11:39:42.091Z,27.70
2019-05-01T11:42:11.798Z,14.98
2019-05-01T11:44:39.061Z,28.15
2019-05-01T11:47:06.370Z,27.00
2019-05-01T11:49:33.602Z,92.45
2019-05-01T11:52:00.820Z,70.17
2019-05-01T11:54:28.150Z,31.70
2019-05-01T11:56:55.406Z,16.95
2019-05-01T11:59:22.615Z,22.45
2019-05-01T12:01:49.950Z,15.85
2019-05-01T12:04:17.168Z,9.75
2019-05-01T12:06:44.419Z,18.27
2019-05-01T12:09:11.685Z,13.28
2019-05-01T12:11:42.549Z,17.25
2019-05-01T12:14:10.148Z,10.70
2019-05-01T12:16:54.432Z,9.20
2019-05-01T12:19:26.333Z,9.55
2019-05-01T12:21:53.589Z,8.63
2019-05-01T12:24:20.889Z,8.50
2019-05-01T12:26:48.112Z,14.33
2019-05-01T12:29:15.342Z,34.55
2019-05-01T12:31:42.654Z,9.73
2019-05-01T12:34:09.952Z,9.90
2019-05-01T12:36:39.546Z,14.85
2019-05-01T12:39:08.634Z,5.78
2019-05-01T12:41:42.004Z,18.50
2019-05-01T12:44:09.693Z,8.63
2019-05-01T12:46:44.501Z,13.68
2019-05-01T12:49:12.374Z,23.67
2019-05-01T12:51:40.668Z,7.47
2019-05-01T12:54:26.280Z,15.48
2019-05-01T12:56:58.152Z,25.77
2019-05-01T12:59:25.475Z,11.90
2019-05-01T13:01:52.705Z,17.85
2019-05-01T13:04:20.008Z,11.60
2019-05-01T13:06:49.449Z,13.50
2019-05-01T13:09:16.346Z,11.30
2019-05-01T13:11:43.599Z,8.13
2019-05-01T13:14:11.093Z,7.87
2019-05-01T13:16:38.352Z,10.35
2019-05-01T13:19:05.586Z,22.02
2019-05-01T13:21:32.896Z,13.78
2019-05-01T13:24:00.731Z,10.15
2019-05-01T13:26:29.761Z,11.55
2019-05-01T13:29:01.664Z,11.28
2019-05-01T13:31:36.631Z,12.58
2019-05-01T13:34:04.031Z,22.27
2019-05-01T13:36:31.354Z,9.98
2019-05-01T13:38:58.613Z,11.40
2019-05-01T13:41:27.229Z,8.05
2019-05-01T13:43:54.457Z,5.65
2019-05-01T13:46:21.676Z,6.75
2019-05-01T13:48:48.982Z,6.20
2019-05-01T13:51:16.207Z,7.42
2019-05-01T13:53:43.513Z,6.35
2019-05-01T13:56:10.893Z,11.10
2019-05-01T13:58:38.169Z,5.53
2019-05-01T14:01:05.418Z,6.65
2019-05-01T14:03:32.870Z,8.38
2019-05-01T14:06:00.110Z,5.95
2019-05-01T14:08:27.497Z,7.28
2019-05-01T14:10:54.792Z,6.75
2019-05-01T14:13:22.026Z,12.90
2019-05-01T14:15:51.468Z,18.98
2019-05-01T14:18:18.765Z,12.58
2019-05-01T14:20:50.855Z,20.40
2019-05-01T14:23:22.812Z,21.90
2019-05-01T14:26:00.774Z,33.38
2019-05-01T14:28:29.054Z,16.85
2019-05-01T14:30:56.404Z,8.43
2019-05-01T14:33:23.639Z,6.65
2019-05-01T14:35:50.932Z,9.40
2019-05-01T14:38:18.620Z,9.03
2019-05-01T14:40:45.926Z,7.03
2019-05-01T14:43:14.195Z,12.07
2019-05-01T14:45:41.565Z,22.52
2019-05-01T14:48:08.817Z,12.68
2019-05-01T14:50:36.098Z,15.20
2019-05-01T14:53:03.316Z,16.62
2019-05-01T14:55:30.591Z,16.52
2019-05-01T14:57:57.867Z,13.28
2019-05-01T15:00:25.132Z,14.63
2019-05-01T15:02:52.407Z,18.32
2019-05-01T15:05:19.706Z,10.23
2019-05-01T15:07:46.921Z,10.58
2019-05-01T15:10:14.264Z,8.73
2019-05-01T15:12:42.980Z,9.05
2019-05-01T15:15:20.954Z,12.18
2019-05-01T15:17:50.343Z,11.43
2019-05-01T15:20:17.578Z,14.10
2019-05-01T15:22:44.824Z,14.78
2019-05-01T15:25:12.742Z,10.32
2019-05-01T15:27:39.976Z,13.08
2019-05-01T15:30:07.225Z,11.75
2019-05-01T15:32:34.486Z,15.83
2019-05-01T15:35:01.958Z,7.72
2019-05-01T15:37:29.196Z,12.23
2019-05-01T15:39:58.293Z,9.08
2019-05-01T15:42:30.124Z,8.18
2019-05-01T15:44:57.419Z,9.95
2019-05-01T15:47:24.698Z,8.40
2019-05-01T15:49:53.103Z,9.03
2019-05-01T15:52:20.827Z,5.87
2019-05-01T15:54:48.116Z,13.38
2019-05-01T15:57:15.331Z,10.85
2019-05-01T15:59:42.613Z,10.72
2019-05-01T16:02:09.824Z,7.83
2019-05-01T16:04:37.315Z,14.07
2019-05-01T16:07:04.607Z,9.50
2019-05-01T16:09:31.856Z,8.55
2019-05-01T16:12:06.764Z,48.23
2019-05-01T16:14:34.012Z,14.78
2019-05-01T16:17:01.310Z,13.13
2019-05-01T16:19:28.908Z,9.70
2019-05-01T16:21:57.512Z,9.20
2019-05-01T16:24:24.795Z,10.00
2019-05-01T16:26:52.173Z,8.93
2019-05-01T16:29:19.431Z,17.40
2019-05-01T16:31:46.676Z,9.90
2019-05-01T16:34:13.953Z,12.33
2019-05-01T16:36:41.256Z,6.35
2019-05-01T16:39:10.389Z,15.10
2019-05-01T16:41:37.715Z,13.03
2019-05-01T16:44:04.979Z,13.22
2019-05-01T16:46:32.729Z,14.65
2019-05-01T16:49:00.201Z,9.83
2019-05-01T16:51:27.541Z,14.73
2019-05-01T16:53:54.850Z,9.93
2019-05-01T16:56:22.157Z,13.65
2019-05-01T16:58:49.405Z,13.10
2019-05-01T17:01:18.538Z,11.63
2019-05-01T17:04:00.218Z,13.70
2019-05-01T17:06:45.761Z,19.17
2019-05-01T17:09:20.840Z,38.45
2019-05-01T17:11:48.143Z,87.40
2019-05-01T17:14:16.322Z,66.60
2019-05-01T17:16:43.682Z,56.73
2019-05-01T17:19:12.506Z,47.50
2019-05-01T17:21:40.430Z,44.83
2019-05-01T17:24:09.737Z,43.73
2019-05-01T17:26:36.949Z,25.82
2019-05-01T17:29:05.649Z,21.95
2019-05-01T17:31:33.004Z,18.27
2019-05-01T17:34:00.268Z,27.22
2019-05-01T17:36:27.699Z,19.07
2019-05-01T17:38:54.990Z,26.23
2019-05-01T17:41:22.741Z,22.30
2019-05-01T17:43:51.294Z,40.12
2019-05-01T17:46:19.612Z,59.80
2019-05-01T17:48:46.847Z,60.15
2019-05-01T17:51:14.133Z,50.65
2019-05-01T17:53:41.399Z,36.20
2019-05-01T17:56:09.916Z,37.73
2019-05-01T17:58:37.658Z,38.48
2019-05-01T18:01:22.036Z,33.18
2019-05-01T18:03:53.593Z,36.30
2019-05-01T18:06:25.462Z,46.53
2019-05-01T18:09:03.000Z,64.62
2019-05-01T18:11:21.759Z,48.65
2019-05-01T18:13:49.057Z,40.98
2019-05-01T18:16:16.301Z,44.67
2019-05-01T18:18:43.528Z,47.05
2019-05-01T18:21:12.218Z,56.37
2019-05-01T18:23:58.436Z,46.48
2019-05-01T18:26:27.542Z,65.70
2019-05-01T18:29:08.509Z,60.45
2019-05-01T18:31:35.804Z,36.60
2019-05-01T18:34:04.508Z,31.93
2019-05-01T18:36:36.860Z,20.68
2019-05-01T18:39:16.170Z,17.42
2019-05-01T18:41:50.226Z,16.52
2019-05-01T18:44:17.438Z,17.07
2019-05-01T18:46:44.660Z,13.40
2019-05-01T18:49:11.990Z,17.02
2019-05-01T18:51:40.736Z,16.37
2019-05-01T18:54:08.240Z,18.85
2019-05-01T18:56:38.132Z,26.20
2019-05-01T18:59:04.621Z,22.35
2019-05-01T19:01:31.931Z,18.27
2019-05-01T19:03:59.394Z,13.18
2019-05-01T19:06:26.568Z,16.42
2019-05-01T19:08:53.915Z,15.25
2019-05-01T19:11:21.759Z,16.62
2019-05-01T19:13:49.346Z,17.55
2019-05-01T19:16:16.591Z,20.32
2019-05-01T19:18:43.882Z,20.10
2019-05-01T19:21:12.581Z,12.05
2019-05-01T19:23:39.807Z,16.05
2019-05-01T19:26:09.034Z,12.07
2019-05-01T19:28:36.279Z,12.18
2019-05-01T19:31:03.555Z,13.70
2019-05-01T19:33:30.841Z,22.00
2019-05-01T19:36:02.732Z,13.93
2019-05-01T19:38:29.481Z,18.40
2019-05-01T19:40:56.669Z,30.10
2019-05-01T19:43:23.923Z,23.05
2019-05-01T19:45:51.517Z,11.63
2019-05-01T19:48:19.021Z,12.75
2019-05-01T19:50:48.380Z,11.40
2019-05-01T19:53:15.964Z,18.65
2019-05-01T19:55:44.875Z,10.20
2019-05-01T19:58:15.759Z,8.18
2019-05-01T20:00:50.627Z,7.95
2019-05-01T20:03:19.800Z,10.45
2019-05-01T20:05:47.455Z,10.63
2019-05-01T20:08:18.219Z,12.88
2019-05-01T20:10:46.657Z,17.65
2019-05-01T20:13:14.361Z,12.33
2019-05-01T20:15:42.581Z,17.05
2019-05-01T20:18:09.985Z,13.88
2019-05-01T20:20:37.493Z,15.55
2019-05-01T20:23:05.524Z,13.10
2019-05-01T20:25:32.779Z,11.12
2019-05-01T20:28:00.297Z,14.93
2019-05-01T20:30:28.050Z,11.78
2019-05-01T20:32:58.255Z,14.87
2019-05-01T20:35:28.427Z,11.10
2019-05-01T20:37:53.695Z,13.18
2019-05-01T20:40:21.133Z,18.45
2019-05-01T20:42:48.362Z,16.17
2019-05-01T20:45:18.163Z,18.42
2019-05-01T20:47:46.008Z,20.10
2019-05-01T20:50:14.166Z,17.42
2019-05-01T20:52:41.513Z,18.95
2019-05-01T20:55:08.749Z,18.30
2019-05-01T20:57:49.789Z,17.20
2019-05-01T21:00:22.158Z,19.25
2019-05-01T21:02:49.466Z,18.37
2019-05-01T21:05:33.448Z,14.10
2019-05-01T21:08:08.769Z,14.45
2019-05-01T21:10:50.578Z,10.75
2019-05-01T21:13:17.897Z,14.30
2019-05-01T21:15:47.364Z,18.98
2019-05-01T21:18:14.575Z,21.95
2019-05-01T21:20:43.871Z,16.00
2019-05-01T21:23:11.748Z,21.65
2019-05-01T21:25:39.019Z,20.57
2019-05-01T21:28:07.233Z,27.93
2019-05-01T21:30:38.785Z,21.80
2019-05-01T21:33:08.216Z,20.68
2019-05-01T21:35:34.113Z,24.12
2019-05-01T21:38:01.412Z,21.82
2019-05-01T21:40:38.747Z,23.70
2019-05-01T21:42:57.759Z,26.45
2019-05-01T21:45:24.989Z,25.90
2019-05-01T21:47:52.897Z,25.97
2019-05-01T21:50:24.850Z,21.65
2019-05-01T21:52:49.262Z,25.85
2019-05-01T21:55:16.487Z,25.00
2019-05-01T21:57:45.027Z,15.35
2019-05-01T22:00:12.291Z,21.02
2019-05-01T22:02:41.646Z,15.48
2019-05-01T22:05:10.475Z,13.60
2019-05-01T22:07:37.687Z,13.13
2019-05-01T22:10:05.696Z,14.53
2019-05-01T22:12:32.969Z,10.72
2019-05-01T22:15:06.291Z,16.62
2019-05-01T22:17:38.520Z,16.12
2019-05-01T22:20:06.028Z,14.25
2019-05-01T22:22:46.834Z,18.27
2019-05-01T22:25:18.662Z,11.20
2019-05-01T22:27:47.756Z,15.60
2019-05-01T22:30:17.499Z,13.95
2019-05-01T22:32:46.538Z,11.15
2019-05-01T22:35:15.701Z,13.75
2019-05-01T22:37:42.918Z,12.58
2019-05-01T22:40:12.204Z,14.25
2019-05-01T22:42:39.962Z,15.58
2019-05-01T22:45:09.081Z,14.00
2019-05-01T22:47:36.296Z,13.98
2019-05-01T22:50:08.058Z,16.40
2019-05-01T22:52:35.295Z,18.12
2019-05-01T22:55:03.362Z,13.95
2019-05-01T22:57:30.623Z,15.93
2019-05-01T22:59:57.861Z,15.18
2019-05-01T23:02:33.492Z,19.77
2019-05-01T23:05:00.746Z,18.50
2019-05-01T23:07:28.058Z,14.73
2019-05-01T23:09:59.382Z,9.68
2019-05-01T23:12:24.440Z,15.60
2019-05-01T23:14:51.708Z,12.35
2019-05-01T23:17:23.368Z,14.95
2019-05-01T23:19:50.638Z,11.53
2019-05-01T23:22:17.946Z,12.95
2019-05-01T23:24:45.258Z,12.98
2019-05-01T23:27:12.663Z,13.68
2019-05-01T23:29:39.862Z,15.32
2019-05-01T23:32:07.574Z,9.55
2019-05-01T23:34:34.814Z,14.00
2019-05-01T23:37:03.037Z,14.90
2019-05-01T23:39:39.747Z,10.38
2019-05-01T23:41:59.408Z,17.07
2019-05-01T23:44:26.718Z,15.32
2019-05-01T23:46:54.463Z,12.20
2019-05-01T23:49:22.088Z,17.62
2019-05-01T23:51:49.350Z,15.95
2019-05-01T23:54:16.728Z,12.65
2019-05-01T23:56:43.982Z,16.45
2019-05-01T23:59:11.197Z,18.52
